EW7999 Weather Reports


Display with metric or nautical units.
time (UTC)temp
F
wind
direction
speed
MPH
gust
MPH
rain 1hr
in
rain 24hr
in
rain mn
in
humidity
%
barometer
mb
20260510094525 61 16 2.0 4.0 0.00 0.00 0.00 64 1012.7
20260510093012 61 48 2.0 4.0 0.00 0.00 0.00 64 1012.4
20260510091514 62 9 1.0 3.0 0.00 0.00 0.00 64 1012.4
20260510090009 62 351 1.0 4.0 0.00 0.00 0.00 65 1012.2
20260510084510 62 345 2.0 3.0 0.00 0.00 0.00 66 1012.0
20260510083004 62 356 1.0 3.0 0.00 0.00 0.00 65 1012.1
20260510081502 63 15 1.0 1.0 0.00 0.00 0.00 64 1012.0
20260510080104 64 15 0.0 1.0 0.00 0.00 0.00 63 1011.6
20260510074603 64 15 1.0 2.0 0.00 0.00 0.00 62 1011.4
20260510073055 64 15 1.0 2.0 0.00 0.00 0.00 61 1011.5
20260510071553 65 339 1.0 2.0 0.00 0.00 0.00 61 1011.6
20260510070055 65 340 0.0 2.0 0.00 0.00 0.00 60 1011.4
20260510064550 66 338 0.0 2.0 0.00 0.00 0.00 59 1011.3
20260510063046 66 288 1.0 2.0 0.00 0.00 0.00 56 1011.3
20260510061542 68 283 0.0 1.0 0.00 0.00 0.00 53 1010.8
20260510060049 68 284 0.0 1.0 0.00 0.00 0.00 52 1010.7
20260510054539 67 283 0.0 1.0 0.00 0.00 0.00 54 1010.5
20260510053036 67 283 0.0 1.0 0.00 0.00 0.00 54 1010.0
20260510051538 68 270 0.0 1.0 0.00 0.00 0.00 52 1009.7
20260510050030 69 270 0.0 1.0 0.00 0.00 0.00 52 1009.8
20260510044630 69 270 0.0 1.0 0.00 0.00 0.00 51 1009.7
20260510043029 69 269 0.0 2.0 0.00 0.00 0.00 51 1009.9
20260510041531 70 270 0.0 1.0 0.00 0.00 0.00 51 1010.0
20260510040027 70 270 0.0 1.0 0.00 0.00 0.00 49 1010.0
20260510034526 71 269 0.0 1.0 0.00 0.00 0.00 49 1009.8
20260510033026 71 270 0.0 2.0 0.00 0.00 0.00 51 1009.6
20260510031536 71 270 0.0 2.0 0.00 0.00 0.00 50 1009.4
20260510030124 71 280 0.0 2.0 0.00 0.00 0.00 51 1009.1
20260510024524 72 282 0.0 1.0 0.00 0.00 0.00 49 1010.0
20260510023038 72 276 0.0 2.0 0.00 0.00 0.00 49 1009.8
20260510021524 74 273 0.0 1.0 0.00 0.00 0.00 46 1009.7
20260510020022 75 256 0.0 2.0 0.00 0.00 0.00 42 1009.8
20260510014521 76 256 0.0 1.0 0.00 0.00 0.00 40 1009.4
20260510013021 76 256 0.0 2.0 0.00 0.00 0.00 36 1008.7
20260510011525 77 271 1.0 2.0 0.00 0.00 0.00 35 1007.6
20260510010025 78 103 1.0 4.0 0.00 0.00 0.00 34 1007.0
20260510004519 79 313 0.0 2.0 0.00 0.00 0.00 33 1006.6
20260510003019 80 259 1.0 2.0 0.00 0.00 0.00 32 1006.3
20260510001518 81 98 0.0 3.0 0.00 0.00 0.00 30 1006.0
20260510000017 82 113 1.0 4.0 0.00 0.00 0.00 28 1006.0
20260509234519 83 275 0.0 4.0 0.00 0.00 0.00 27 1006.2
20260509233016 83 265 1.0 6.0 0.00 0.00 0.00 25 1006.3
20260509231516 84 272 0.0 3.0 0.00 0.00 0.00 24 1006.4
20260509230015 85 280 0.0 2.0 0.00 0.00 0.00 23 1006.2
20260509224514 85 199 0.0 3.0 0.00 0.00 0.00 22 1006.3
20260509223014 86 322 0.0 3.0 0.00 0.00 0.00 21 1006.2
20260509221513 87 17 1.0 5.0 0.00 0.00 0.00 21 1006.1
20260509220113 89 261 1.0 4.0 0.00 0.00 0.00 21 1006.0
20260509214511 89 233 0.0 8.0 0.00 0.00 0.00 20 1006.2
20260509213011 89 258 0.0 2.0 0.00 0.00 0.00 20 1006.2
20260509211510 89 262 0.0 8.0 0.00 0.00 0.00 20 1006.4
20260509210007 89 299 0.0 2.0 0.00 0.00 0.00 20 1006.7
20260509204505 90 197 1.0 5.0 0.00 0.00 0.00 20 1006.9
20260509203003 90 168 0.0 4.0 0.00 0.00 0.00 21 1007.0
20260509201502 89 277 0.0 4.0 0.00 0.00 0.00 20 1007.2
20260509194600 90 273 0.0 3.0 0.00 0.00 0.00 20 1007.6
20260509193056 89 273 0.0 5.0 0.00 0.00 0.00 20 1007.8
20260509191555 89 272 0.0 2.0 0.00 0.00 0.00 20 1008.0
20260509190054 89 14 0.0 4.0 0.00 0.00 0.00 21 1008.1
20260509184550 88 320 0.0 3.0 0.00 0.00 0.00 22 1008.1
20260509183049 88 275 1.0 5.0 0.00 0.00 0.00 22 1008.3
20260509181554 88 260 0.0 4.0 0.00 0.00 0.00 22 1008.6
20260509180042 87 236 0.0 4.0 0.00 0.00 0.00 23 1008.9
20260509174541 86 273 0.0 2.0 0.00 0.00 0.00 24 1009.2
20260509173036 84 326 0.0 3.0 0.00 0.00 0.00 26 1009.4
20260509171533 84 261 0.0 3.0 0.00 0.00 0.00 27 1009.6
20260509170033 83 274 0.0 3.0 0.00 0.00 0.00 27 1009.7
20260509164531 83 274 0.0 1.0 0.00 0.00 0.00 27 1009.8
20260509163036 81 284 0.0 2.0 0.00 0.00 0.00 29 1009.9
20260509161526 80 287 1.0 2.0 0.00 0.00 0.00 32 1010.0
20260509160022 79 299 1.0 2.0 0.00 0.00 0.00 33 1009.8
20260509154518 77 278 0.0 2.0 0.00 0.00 0.00 36 1009.9
20260509153019 75 275 0.0 1.0 0.00 0.00 0.00 42 1009.8
20260509151509 73 275 0.0 1.0 0.00 0.00 0.00 49 1009.8
20260509150005 71 275 0.0 1.0 0.00 0.00 0.00 58 1009.9
20260509144601 69 273 0.0 1.0 0.00 0.00 0.00 62 1009.8
20260509143104 66 272 0.0 1.0 0.00 0.00 0.00 69 1009.9
20260509141552 64 273 0.0 1.0 0.00 0.00 0.00 72 1009.8
20260509140050 61 273 0.0 0.0 0.00 0.00 0.00 75 1009.7
20260509134551 60 273 0.0 1.0 0.00 0.00 0.00 76 1009.8
20260509133048 58 273 0.0 0.0 0.00 0.00 0.00 78 1009.9
20260509131536 57 272 0.0 1.0 0.00 0.00 0.00 78 1009.9
20260509130035 55 273 0.0 0.0 0.00 0.00 0.00 79 1009.7
20260509124534 54 273 0.0 0.0 0.00 0.00 0.00 80 1009.7
20260509123033 53 270 0.0 1.0 0.00 0.00 0.00 81 1009.5
20260509121537 52 271 0.0 1.0 0.00 0.00 0.00 82 1009.3
20260509120033 52 271 0.0 0.0 0.00 0.00 0.00 82 1009.2
20260509114528 52 271 0.0 0.0 0.00 0.00 0.00 82 1009.1
20260509113027 52 271 0.0 0.0 0.00 0.00 0.00 82 1008.8
20260509111527 51 271 0.0 0.0 0.00 0.00 0.00 82 1008.8
20260509110025 51 271 0.0 0.0 0.00 0.00 0.00 82 1008.7
20260509104524 51 270 0.0 0.0 0.00 0.00 0.00 82 1008.9
20260509103023 51 271 0.0 0.0 0.00 0.00 0.00 82 1008.9
20260509101522 52 271 0.0 0.0 0.00 0.00 0.00 82 1008.9
20260509100020 52 271 0.0 0.0 0.00 0.00 0.00 82 1009.0